sensor_id;sensor_type;location;lat;lon;timestamp;pressure;altitude;pressure_sealevel;temperature;humidity
63819;BME280;49970;54.976;73.248;2022-10-04T00:03:11;102341.06;;;-0.59;77.26
63819;BME280;49970;54.976;73.248;2022-10-04T00:05:39;102344.53;;;-0.60;77.25
63819;BME280;49970;54.976;73.248;2022-10-04T00:08:47;102354.91;;;-0.64;77.38
63819;BME280;49970;54.976;73.248;2022-10-04T00:13:57;102358.31;;;-0.71;77.22
63819;BME280;49970;54.976;73.248;2022-10-04T00:16:42;102355.63;;;-0.81;77.18
63819;BME280;49970;54.976;73.248;2022-10-04T00:24:31;102365.13;;;-0.86;77.85
63819;BME280;49970;54.976;73.248;2022-10-04T00:27:23;102358.28;;;-0.78;77.70
63819;BME280;49970;54.976;73.248;2022-10-04T00:38:13;102346.97;;;-0.81;76.70
63819;BME280;49970;54.976;73.248;2022-10-04T00:41:09;102355.78;;;-0.67;76.66
63819;BME280;49970;54.976;73.248;2022-10-04T00:43:43;102358.44;;;-0.58;76.15
63819;BME280;49970;54.976;73.248;2022-10-04T00:46:22;102349.72;;;-0.60;76.15
63819;BME280;49970;54.976;73.248;2022-10-04T00:49:02;102351.50;;;-0.57;75.95
63819;BME280;49970;54.976;73.248;2022-10-04T00:51:44;102354.97;;;-0.58;76.43
63819;BME280;49970;54.976;73.248;2022-10-04T00:54:31;102346.31;;;-0.51;76.30
63819;BME280;49970;54.976;73.248;2022-10-04T00:57:05;102345.50;;;-0.45;75.93
63819;BME280;49970;54.976;73.248;2022-10-04T01:07:32;102348.19;;;-0.33;75.06
63819;BME280;49970;54.976;73.248;2022-10-04T01:10:06;102347.38;;;-0.29;75.45
63819;BME280;49970;54.976;73.248;2022-10-04T01:12:53;102341.28;;;-0.27;75.43
63819;BME280;49970;54.976;73.248;2022-10-04T01:21:02;102338.78;;;-0.11;74.57
63819;BME280;49970;54.976;73.248;2022-10-04T01:23:44;102339.59;;;-0.17;74.67
63819;BME280;49970;54.976;73.248;2022-10-04T01:28:59;102346.47;;;-0.33;75.82
63819;BME280;49970;54.976;73.248;2022-10-04T01:31:28;102348.19;;;-0.32;76.04
63819;BME280;49970;54.976;73.248;2022-10-04T01:34:05;102353.44;;;-0.26;75.65
63819;BME280;49970;54.976;73.248;2022-10-04T01:36:32;102343.91;;;-0.25;76.04
63819;BME280;49970;54.976;73.248;2022-10-04T01:38:59;102359.59;;;-0.14;76.04
63819;BME280;49970;54.976;73.248;2022-10-04T01:44:00;102348.38;;;-0.03;75.13
63819;BME280;49970;54.976;73.248;2022-10-04T01:46:32;102336.22;;;0.04;75.26
63819;BME280;49970;54.976;73.248;2022-10-04T01:49:09;102348.44;;;0.11;75.04
63819;BME280;49970;54.976;73.248;2022-10-04T01:51:43;102358.03;;;0.20;74.65
63819;BME280;49970;54.976;73.248;2022-10-04T01:54:17;102357.19;;;0.24;74.61
63819;BME280;49970;54.976;73.248;2022-10-04T01:59:51;102357.22;;;0.30;74.19
63819;BME280;49970;54.976;73.248;2022-10-04T02:02:55;102361.59;;;0.34;74.81
63819;BME280;49970;54.976;73.248;2022-10-04T02:05:30;102357.25;;;0.38;74.44
63819;BME280;49970;54.976;73.248;2022-10-04T02:08:07;102363.34;;;0.44;74.65
63819;BME280;49970;54.976;73.248;2022-10-04T02:10:35;102359.88;;;0.45;74.02
63819;BME280;49970;54.976;73.248;2022-10-04T02:13:09;102363.41;;;0.55;74.50
63819;BME280;49970;54.976;73.248;2022-10-04T02:15:37;102353.84;;;0.59;74.14
63819;BME280;49970;54.976;73.248;2022-10-04T02:18:16;102366.00;;;0.66;74.59
63819;BME280;49970;54.976;73.248;2022-10-04T02:20:43;102361.69;;;0.71;74.45
63819;BME280;49970;54.976;73.248;2022-10-04T02:23:21;102369.53;;;0.76;74.24
63819;BME280;49970;54.976;73.248;2022-10-04T02:25:48;102364.31;;;0.82;74.55
63819;BME280;49970;54.976;73.248;2022-10-04T02:28:15;102365.22;;;0.88;74.30
63819;BME280;49970;54.976;73.248;2022-10-04T02:30:49;102361.75;;;0.94;74.60
63819;BME280;49970;54.976;73.248;2022-10-04T02:33:42;102354.78;;;1.04;74.50
63819;BME280;49970;54.976;73.248;2022-10-04T02:36:10;102361.75;;;1.11;74.46
63819;BME280;49970;54.976;73.248;2022-10-04T02:38:56;102357.41;;;1.20;74.94
63819;BME280;49970;54.976;73.248;2022-10-04T02:41:45;102356.56;;;1.28;74.50
63819;BME280;49970;54.976;73.248;2022-10-04T02:44:20;102359.16;;;1.37;74.70
63819;BME280;49970;54.976;73.248;2022-10-04T02:47:17;102353.91;;;1.46;74.28
63819;BME280;49970;54.976;73.248;2022-10-04T02:49:52;102353.06;;;1.61;74.55
63819;BME280;49970;54.976;73.248;2022-10-04T02:52:26;102355.66;;;1.73;74.01
63819;BME280;49970;54.976;73.248;2022-10-04T02:55:04;102355.63;;;1.85;73.69
63819;BME280;49970;54.976;73.248;2022-10-04T02:57:33;102359.06;;;1.98;73.28
63819;BME280;49970;54.976;73.248;2022-10-04T03:02:35;102361.63;;;2.19;72.84
63819;BME280;49970;54.976;73.248;2022-10-04T03:05:09;102363.34;;;2.27;72.68
63819;BME280;49970;54.976;73.248;2022-10-04T03:07:38;102365.91;;;2.30;72.38
63819;BME280;49970;54.976;73.248;2022-10-04T03:10:08;102373.75;;;2.37;72.11
63819;BME280;49970;54.976;73.248;2022-10-04T03:12:42;102371.09;;;2.42;72.44
63819;BME280;49970;54.976;73.248;2022-10-04T03:15:09;102365.88;;;2.45;72.40
63819;BME280;49970;54.976;73.248;2022-10-04T03:17:43;102371.94;;;2.50;72.40
63819;BME280;49970;54.976;73.248;2022-10-04T03:20:13;102371.06;;;2.56;72.55
63819;BME280;49970;54.976;73.248;2022-10-04T03:22:49;102379.72;;;2.65;72.38
63819;BME280;49970;54.976;73.248;2022-10-04T03:25:29;102387.53;;;2.74;72.64
63819;BME280;49970;54.976;73.248;2022-10-04T03:28:01;102369.16;;;2.82;72.57
63819;BME280;49970;54.976;73.248;2022-10-04T03:30:35;102363.88;;;2.90;72.45
63819;BME280;49970;54.976;73.248;2022-10-04T03:33:06;102372.50;;;3.04;72.39
63819;BME280;49970;54.976;73.248;2022-10-04T03:35:46;102362.88;;;3.11;72.02
63819;BME280;49970;54.976;73.248;2022-10-04T03:38:14;102374.97;;;3.25;71.97
63819;BME280;49970;54.976;73.248;2022-10-04T03:40:48;102375.78;;;3.35;71.70
63819;BME280;49970;54.976;73.248;2022-10-04T03:43:16;102375.72;;;3.43;71.41
63819;BME280;49970;54.976;73.248;2022-10-04T03:45:43;102370.41;;;3.49;70.83
63819;BME280;49970;54.976;73.248;2022-10-04T03:48:27;102372.09;;;3.55;70.77
63819;BME280;49970;54.976;73.248;2022-10-04T03:50:54;102365.91;;;3.65;70.72
63819;BME280;49970;54.976;73.248;2022-10-04T03:53:40;102368.41;;;3.75;69.56
63819;BME280;49970;54.976;73.248;2022-10-04T03:56:17;102365.69;;;3.86;69.86
63819;BME280;49970;54.976;73.248;2022-10-04T03:58:44;102364.75;;;3.92;69.41
63819;BME280;49970;54.976;73.248;2022-10-04T04:06:32;102367.97;;;4.18;68.21
63819;BME280;49970;54.976;73.248;2022-10-04T04:09:04;102364.38;;;4.27;67.36
63819;BME280;49970;54.976;73.248;2022-10-04T04:11:31;102366.91;;;4.33;67.10
63819;BME280;49970;54.976;73.248;2022-10-04T04:14:08;102371.16;;;4.42;67.17
63819;BME280;49970;54.976;73.248;2022-10-04T04:16:37;102360.63;;;4.48;66.28
63819;BME280;49970;54.976;73.248;2022-10-04T04:19:11;102365.78;;;4.56;66.77
63819;BME280;49970;54.976;73.248;2022-10-04T04:21:38;102352.66;;;4.56;66.10
63819;BME280;49970;54.976;73.248;2022-10-04T04:24:18;102368.31;;;4.59;64.87
63819;BME280;49970;54.976;73.248;2022-10-04T04:26:58;102362.25;;;4.55;64.75
63819;BME280;49970;54.976;73.248;2022-10-04T04:29:49;102363.97;;;4.58;65.32
63819;BME280;49970;54.976;73.248;2022-10-04T04:32:25;102363.16;;;4.56;65.25
63819;BME280;49970;54.976;73.248;2022-10-04T04:34:58;102370.13;;;4.55;65.01
63819;BME280;49970;54.976;73.248;2022-10-04T04:37:25;102373.66;;;4.56;64.97
63819;BME280;49970;54.976;73.248;2022-10-04T04:39:52;102371.03;;;4.56;64.59
63819;BME280;49970;54.976;73.248;2022-10-04T04:42:30;102364.88;;;4.55;64.94
63819;BME280;49970;54.976;73.248;2022-10-04T04:45:04;102370.91;;;4.62;64.76
63819;BME280;49970;54.976;73.248;2022-10-04T04:47:37;102368.19;;;4.68;64.50
63819;BME280;49970;54.976;73.248;2022-10-04T04:50:10;102354.97;;;4.77;64.58
63819;BME280;49970;54.976;73.248;2022-10-04T04:52:38;102359.22;;;4.84;64.95
63819;BME280;49970;54.976;73.248;2022-10-04T04:55:16;102349.47;;;4.92;63.73
63819;BME280;49970;54.976;73.248;2022-10-04T04:57:43;102349.31;;;5.02;63.20
63819;BME280;49970;54.976;73.248;2022-10-04T05:00:16;102339.72;;;5.02;64.28
63819;BME280;49970;54.976;73.248;2022-10-04T05:02:53;102349.09;;;5.17;63.51
63819;BME280;49970;54.976;73.248;2022-10-04T05:05:28;102348.94;;;5.28;63.73
63819;BME280;49970;54.976;73.248;2022-10-04T05:10:37;102337.38;;;5.39;62.85
63819;BME280;49970;54.976;73.248;2022-10-04T05:13:05;102335.50;;;5.44;62.38
63819;BME280;49970;54.976;73.248;2022-10-04T05:15:38;102335.38;;;5.50;62.01
63819;BME280;49970;54.976;73.248;2022-10-04T05:18:29;102341.47;;;5.54;62.46
63819;BME280;49970;54.976;73.248;2022-10-04T05:21:27;102337.88;;;5.58;61.59
63819;BME280;49970;54.976;73.248;2022-10-04T05:23:56;102334.19;;;5.68;61.33
63819;BME280;49970;54.976;73.248;2022-10-04T05:26:28;102334.09;;;5.74;61.01
63819;BME280;49970;54.976;73.248;2022-10-04T05:29:13;102340.91;;;5.85;60.33
63819;BME280;49970;54.976;73.248;2022-10-04T05:34:39;102335.53;;;5.91;60.63
63819;BME280;49970;54.976;73.248;2022-10-04T05:37:29;102325.00;;;5.92;60.51
63819;BME280;49970;54.976;73.248;2022-10-04T05:42:41;102309.22;;;5.94;60.39
63819;BME280;49970;54.976;73.248;2022-10-04T05:45:30;102320.47;;;6.01;59.78
63819;BME280;49970;54.976;73.248;2022-10-04T05:47:59;102327.38;;;6.06;60.67
63819;BME280;49970;54.976;73.248;2022-10-04T05:50:33;102319.47;;;6.08;60.08
63819;BME280;49970;54.976;73.248;2022-10-04T05:59:31;102311.38;;;6.17;59.40
63819;BME280;49970;54.976;73.248;2022-10-04T06:05:26;102307.78;;;6.21;58.86
63819;BME280;49970;54.976;73.248;2022-10-04T06:10:56;102305.09;;;6.22;59.35
63819;BME280;49970;54.976;73.248;2022-10-04T06:22:16;102308.53;;;6.28;59.15
63819;BME280;49970;54.976;73.248;2022-10-04T06:24:48;102304.06;;;6.30;59.34
63819;BME280;49970;54.976;73.248;2022-10-04T06:27:25;102301.44;;;6.30;59.26
63819;BME280;49970;54.976;73.248;2022-10-04T06:30:02;102305.69;;;6.35;58.75
63819;BME280;49970;54.976;73.248;2022-10-04T06:35:53;102298.59;;;6.40;59.31
63819;BME280;49970;54.976;73.248;2022-10-04T06:39:00;102290.56;;;6.46;58.72
63819;BME280;49970;54.976;73.248;2022-10-04T06:44:51;102288.56;;;6.56;58.98
63819;BME280;49970;54.976;73.248;2022-10-04T06:57:00;102281.06;;;6.77;58.53
63819;BME280;49970;54.976;73.248;2022-10-04T07:02:29;102283.41;;;6.90;58.08
63819;BME280;49970;54.976;73.248;2022-10-04T07:05:17;102280.66;;;6.95;58.14
63819;BME280;49970;54.976;73.248;2022-10-04T07:07:54;102284.09;;;6.97;57.97
63819;BME280;49970;54.976;73.248;2022-10-04T07:10:52;102287.47;;;7.02;57.15
63819;BME280;49970;54.976;73.248;2022-10-04T07:21:19;102266.19;;;7.11;57.07
63819;BME280;49970;54.976;73.248;2022-10-04T07:23:58;102277.44;;;7.18;57.41
63819;BME280;49970;54.976;73.248;2022-10-04T07:26:48;102276.44;;;7.22;56.80
63819;BME280;49970;54.976;73.248;2022-10-04T07:29:16;102271.06;;;7.27;57.06
63819;BME280;49970;54.976;73.248;2022-10-04T07:34:46;102271.78;;;7.33;56.84
63819;BME280;49970;54.976;73.248;2022-10-04T07:37:17;102268.19;;;7.36;56.97
63819;BME280;49970;54.976;73.248;2022-10-04T07:40:06;102272.47;;;7.40;56.57
63819;BME280;49970;54.976;73.248;2022-10-04T07:42:49;102264.47;;;7.43;56.74
63819;BME280;49970;54.976;73.248;2022-10-04T07:45:29;102254.78;;;7.43;56.04
63819;BME280;49970;54.976;73.248;2022-10-04T07:51:04;102252.78;;;7.53;55.41
63819;BME280;49970;54.976;73.248;2022-10-04T07:56:51;102245.53;;;7.61;55.50
63819;BME280;49970;54.976;73.248;2022-10-04T08:08:12;102249.56;;;7.73;54.50
63819;BME280;49970;54.976;73.248;2022-10-04T08:10:53;102239.00;;;7.74;54.31
63819;BME280;49970;54.976;73.248;2022-10-04T08:13:50;102247.78;;;7.75;54.34
63819;BME280;49970;54.976;73.248;2022-10-04T08:16:37;102250.34;;;7.77;54.29
63819;BME280;49970;54.976;73.248;2022-10-04T08:19:26;102240.63;;;7.79;54.86
63819;BME280;49970;54.976;73.248;2022-10-04T08:25:20;102230.59;;;7.91;55.21
63819;BME280;49970;54.976;73.248;2022-10-04T08:28:02;102226.97;;;7.94;54.76
63819;BME280;49970;54.976;73.248;2022-10-04T08:31:56;102226.09;;;7.95;54.29
63819;BME280;49970;54.976;73.248;2022-10-04T08:39:36;102214.50;;;8.01;53.99
63819;BME280;49970;54.976;73.248;2022-10-04T08:50:31;102217.69;;;8.12;54.82
63819;BME280;49970;54.976;73.248;2022-10-04T08:56:25;102214.06;;;8.14;54.53
63819;BME280;49970;54.976;73.248;2022-10-04T09:05:52;102220.16;;;8.16;54.54
63819;BME280;49970;54.976;73.248;2022-10-04T09:09:10;102222.84;;;8.15;54.60
63819;BME280;49970;54.976;73.248;2022-10-04T09:11:42;102219.19;;;8.19;54.95
63819;BME280;49970;54.976;73.248;2022-10-04T09:26:20;102213.81;;;8.23;54.51
63819;BME280;49970;54.976;73.248;2022-10-04T09:37:35;102202.19;;;8.28;54.62
63819;BME280;49970;54.976;73.248;2022-10-04T09:46:26;102221.47;;;8.31;53.78
63819;BME280;49970;54.976;73.248;2022-10-04T09:49:26;102217.03;;;8.32;54.11
63819;BME280;49970;54.976;73.248;2022-10-04T10:03:32;102202.94;;;8.33;54.15
63819;BME280;49970;54.976;73.248;2022-10-04T10:09:10;102219.56;;;8.36;53.87
63819;BME280;49970;54.976;73.248;2022-10-04T10:17:54;102205.47;;;8.37;54.11
63819;BME280;49970;54.976;73.248;2022-10-04T10:20:41;102203.63;;;8.39;54.01
63819;BME280;49970;54.976;73.248;2022-10-04T10:23:32;102202.69;;;8.42;53.79
63819;BME280;49970;54.976;73.248;2022-10-04T10:26:11;102205.25;;;8.43;53.80
63819;BME280;49970;54.976;73.248;2022-10-04T10:40:41;102196.31;;;8.49;53.19
63819;BME280;49970;54.976;73.248;2022-10-04T10:43:35;102190.16;;;8.48;53.11
63819;BME280;49970;54.976;73.248;2022-10-04T10:57:39;102188.16;;;8.55;53.45
63819;BME280;49970;54.976;73.248;2022-10-04T11:01:21;102184.59;;;8.56;53.53
63819;BME280;49970;54.976;73.248;2022-10-04T11:10:21;102181.94;;;8.58;54.32
63819;BME280;49970;54.976;73.248;2022-10-04T11:15:42;102169.44;;;8.63;53.11
63819;BME280;49970;54.976;73.248;2022-10-04T11:18:33;102176.41;;;8.65;53.38
63819;BME280;49970;54.976;73.248;2022-10-04T11:21:19;102173.69;;;8.67;53.11
63819;BME280;49970;54.976;73.248;2022-10-04T11:30:18;102165.78;;;8.67;52.85
63819;BME280;49970;54.976;73.248;2022-10-04T11:42:03;102153.38;;;8.69;53.65
63819;BME280;49970;54.976;73.248;2022-10-04T11:49:53;102154.28;;;8.68;53.57
63819;BME280;49970;54.976;73.248;2022-10-04T11:59:14;102136.97;;;8.59;53.20
63819;BME280;49970;54.976;73.248;2022-10-04T12:02:24;102139.44;;;8.64;53.22
63819;BME280;49970;54.976;73.248;2022-10-04T12:31:06;102129.81;;;8.63;53.59
63819;BME280;49970;54.976;73.248;2022-10-04T12:41:51;102135.25;;;8.58;54.53
63819;BME280;49970;54.976;73.248;2022-10-04T12:44:40;102126.56;;;8.55;54.12
63819;BME280;49970;54.976;73.248;2022-10-04T13:01:46;102130.16;;;8.52;55.30
63819;BME280;49970;54.976;73.248;2022-10-04T13:07:50;102132.94;;;8.47;56.40
63819;BME280;49970;54.976;73.248;2022-10-04T13:16:38;102130.47;;;8.43;57.20
63819;BME280;49970;54.976;73.248;2022-10-04T13:20:28;102129.66;;;8.41;56.33
63819;BME280;49970;54.976;73.248;2022-10-04T13:26:21;102125.28;;;8.40;56.68
63819;BME280;49970;54.976;73.248;2022-10-04T13:29:07;102125.28;;;8.40;56.79
63819;BME280;49970;54.976;73.248;2022-10-04T13:35:13;102132.31;;;8.41;56.55
63819;BME280;49970;54.976;73.248;2022-10-04T13:37:48;102120.13;;;8.37;56.68
63819;BME280;49970;54.976;73.248;2022-10-04T13:40:47;102123.56;;;8.39;56.74
63819;BME280;49970;54.976;73.248;2022-10-04T13:46:46;102118.34;;;8.36;56.32
63819;BME280;49970;54.976;73.248;2022-10-04T13:52:16;102128.81;;;8.40;56.70
63819;BME280;49970;54.976;73.248;2022-10-04T14:16:22;102113.75;;;8.42;56.80
63819;BME280;49970;54.976;73.248;2022-10-04T14:19:28;102118.19;;;8.42;55.96
63819;BME280;49970;54.976;73.248;2022-10-04T14:28:32;102124.31;;;8.42;56.87
63819;BME280;49970;54.976;73.248;2022-10-04T14:31:30;102125.16;;;8.44;56.55
63819;BME280;49970;54.976;73.248;2022-10-04T14:44:10;102130.47;;;8.43;56.56
63819;BME280;49970;54.976;73.248;2022-10-04T14:49:43;102127.63;;;8.49;56.67
63819;BME280;49970;54.976;73.248;2022-10-04T15:01:23;102123.09;;;8.53;56.41
63819;BME280;49970;54.976;73.248;2022-10-04T15:03:57;102122.97;;;8.57;56.34
63819;BME280;49970;54.976;73.248;2022-10-04T15:09:15;102121.13;;;8.59;56.28
63819;BME280;49970;54.976;73.248;2022-10-04T15:11:48;102122.84;;;8.60;56.66
63819;BME280;49970;54.976;73.248;2022-10-04T15:14:31;102121.03;;;8.62;56.48
63819;BME280;49970;54.976;73.248;2022-10-04T15:17:01;102119.31;;;8.61;56.96
63819;BME280;49970;54.976;73.248;2022-10-04T15:19:36;102111.38;;;8.61;56.59
63819;BME280;49970;54.976;73.248;2022-10-04T15:22:23;102100.22;;;8.53;57.54
63819;BME280;49970;54.976;73.248;2022-10-04T15:24:53;102110.63;;;8.58;57.57
63819;BME280;49970;54.976;73.248;2022-10-04T15:33:26;102108.69;;;8.63;57.45
63819;BME280;49970;54.976;73.248;2022-10-04T15:46:48;102107.81;;;8.62;58.08
63819;BME280;49970;54.976;73.248;2022-10-04T16:04:14;102110.47;;;8.62;57.77
63819;BME280;49970;54.976;73.248;2022-10-04T16:10:00;102107.84;;;8.61;58.00
63819;BME280;49970;54.976;73.248;2022-10-04T16:12:59;102110.50;;;8.61;57.99
63819;BME280;49970;54.976;73.248;2022-10-04T16:15:40;102100.91;;;8.58;58.16
63819;BME280;49970;54.976;73.248;2022-10-04T16:21:09;102110.41;;;8.64;57.89
63819;BME280;49970;54.976;73.248;2022-10-04T16:23:42;102096.44;;;8.60;58.51
63819;BME280;49970;54.976;73.248;2022-10-04T16:36:56;102098.09;;;8.63;57.99
63819;BME280;49970;54.976;73.248;2022-10-04T16:39:36;102098.88;;;8.66;58.43
63819;BME280;49970;54.976;73.248;2022-10-04T16:47:55;102091.91;;;8.64;57.68
63819;BME280;49970;54.976;73.248;2022-10-04T16:56:31;102085.75;;;8.63;58.08
63819;BME280;49970;54.976;73.248;2022-10-04T16:59:04;102087.44;;;8.66;57.96
63819;BME280;49970;54.976;73.248;2022-10-04T17:01:54;102090.88;;;8.68;57.78
63819;BME280;49970;54.976;73.248;2022-10-04T17:09:46;102081.06;;;8.71;58.01
63819;BME280;49970;54.976;73.248;2022-10-04T17:17:55;102090.72;;;8.72;57.84
63819;BME280;49970;54.976;73.248;2022-10-04T17:29:02;102078.53;;;8.68;58.34
63819;BME280;49970;54.976;73.248;2022-10-04T17:31:56;102082.03;;;8.69;58.26
63819;BME280;49970;54.976;73.248;2022-10-04T17:37:22;102083.78;;;8.70;59.08
63819;BME280;49970;54.976;73.248;2022-10-04T17:45:34;102081.41;;;8.62;58.92
63819;BME280;49970;54.976;73.248;2022-10-04T17:48:20;102083.97;;;8.64;58.74
63819;BME280;49970;54.976;73.248;2022-10-04T17:54:25;102063.94;;;8.58;58.83
63819;BME280;49970;54.976;73.248;2022-10-04T17:57:22;102075.25;;;8.62;58.40
63819;BME280;49970;54.976;73.248;2022-10-04T18:00:07;102068.38;;;8.56;58.49
63819;BME280;49970;54.976;73.248;2022-10-04T18:09:20;102054.28;;;8.57;58.51
63819;BME280;49970;54.976;73.248;2022-10-04T18:11:33;102066.66;;;8.55;58.70
63819;BME280;49970;54.976;73.248;2022-10-04T18:17:20;102069.53;;;8.49;59.31
63819;BME280;49970;54.976;73.248;2022-10-04T18:20:06;102065.22;;;8.46;59.67
63819;BME280;49970;54.976;73.248;2022-10-04T18:22:49;102065.31;;;8.43;59.73
63819;BME280;49970;54.976;73.248;2022-10-04T18:25:37;102064.34;;;8.46;58.89
63819;BME280;49970;54.976;73.248;2022-10-04T18:33:22;102058.97;;;8.49;58.71
63819;BME280;49970;54.976;73.248;2022-10-04T18:36:13;102059.69;;;8.54;59.38
63819;BME280;49970;54.976;73.248;2022-10-04T18:38:41;102055.41;;;8.50;58.13
63819;BME280;49970;54.976;73.248;2022-10-04T18:43:49;102056.03;;;8.57;58.05
63819;BME280;49970;54.976;73.248;2022-10-04T18:46:18;102061.22;;;8.60;58.15
63819;BME280;49970;54.976;73.248;2022-10-04T18:49:12;102053.38;;;8.58;57.65
63819;BME280;49970;54.976;73.248;2022-10-04T18:54:53;102065.72;;;8.58;58.01
63819;BME280;49970;54.976;73.248;2022-10-04T18:57:31;102061.31;;;8.57;58.37
63819;BME280;49970;54.976;73.248;2022-10-04T19:00:09;102067.38;;;8.60;57.79
63819;BME280;49970;54.976;73.248;2022-10-04T19:11:42;102065.59;;;8.61;57.59
63819;BME280;49970;54.976;73.248;2022-10-04T19:17:32;102062.16;;;8.59;57.95
63819;BME280;49970;54.976;73.248;2022-10-04T19:26:15;102051.75;;;8.54;58.07
63819;BME280;49970;54.976;73.248;2022-10-04T19:29:08;102062.34;;;8.53;58.07
63819;BME280;49970;54.976;73.248;2022-10-04T19:31:55;102053.69;;;8.49;59.14
63819;BME280;49970;54.976;73.248;2022-10-04T19:34:44;102057.22;;;8.48;58.28
63819;BME280;49970;54.976;73.248;2022-10-04T19:39:59;102063.41;;;8.48;58.80
63819;BME280;49970;54.976;73.248;2022-10-04T19:47:48;102059.06;;;8.46;59.78
63819;BME280;49970;54.976;73.248;2022-10-04T19:50:20;102058.31;;;8.42;59.60
63819;BME280;49970;54.976;73.248;2022-10-04T19:52:50;102059.13;;;8.44;59.67
63819;BME280;49970;54.976;73.248;2022-10-04T19:55:50;102055.66;;;8.42;59.44
63819;BME280;49970;54.976;73.248;2022-10-04T20:00:44;102054.88;;;8.40;60.12
63819;BME280;49970;54.976;73.248;2022-10-04T20:03:11;102058.41;;;8.39;59.79
63819;BME280;49970;54.976;73.248;2022-10-04T20:05:49;102050.69;;;8.33;59.35
63819;BME280;49970;54.976;73.248;2022-10-04T20:08:43;102061.19;;;8.35;60.05
63819;BME280;49970;54.976;73.248;2022-10-04T20:12:07;102062.97;;;8.34;59.49
63819;BME280;49970;54.976;73.248;2022-10-04T20:21:52;102056.91;;;8.31;60.27
63819;BME280;49970;54.976;73.248;2022-10-04T20:35:07;102068.63;;;8.23;61.45
63819;BME280;49970;54.976;73.248;2022-10-04T20:45:48;102081.03;;;8.20;61.98
63819;BME280;49970;54.976;73.248;2022-10-04T20:48:21;102071.38;;;8.19;62.67
63819;BME280;49970;54.976;73.248;2022-10-04T20:50:48;102068.88;;;8.16;63.05
63819;BME280;49970;54.976;73.248;2022-10-04T20:53:16;102074.00;;;8.19;63.66
63819;BME280;49970;54.976;73.248;2022-10-04T20:55:44;102070.56;;;8.17;63.09
63819;BME280;49970;54.976;73.248;2022-10-04T20:58:20;102065.38;;;8.14;62.67
63819;BME280;49970;54.976;73.248;2022-10-04T21:00:54;102068.03;;;8.14;63.44
63819;BME280;49970;54.976;73.248;2022-10-04T21:03:21;102066.31;;;8.13;63.44
63819;BME280;49970;54.976;73.248;2022-10-04T21:06:17;102065.53;;;8.09;64.45
63819;BME280;49970;54.976;73.248;2022-10-04T21:08:43;102074.41;;;8.07;63.82
63819;BME280;49970;54.976;73.248;2022-10-04T21:11:18;102067.41;;;8.06;64.23
63819;BME280;49970;54.976;73.248;2022-10-04T21:16:34;102075.25;;;8.09;64.12
63819;BME280;49970;54.976;73.248;2022-10-04T21:21:56;102066.47;;;8.08;64.51
63819;BME280;49970;54.976;73.248;2022-10-04T21:24:51;102070.88;;;8.08;64.42
63819;BME280;49970;54.976;73.248;2022-10-04T21:27:34;102071.84;;;8.05;64.42
63819;BME280;49970;54.976;73.248;2022-10-04T21:30:19;102070.06;;;8.06;63.05
63819;BME280;49970;54.976;73.248;2022-10-04T21:32:47;102070.97;;;8.05;63.90
63819;BME280;49970;54.976;73.248;2022-10-04T21:35:13;102066.56;;;8.05;64.25
63819;BME280;49970;54.976;73.248;2022-10-04T21:37:40;102061.34;;;8.04;64.51
63819;BME280;49970;54.976;73.248;2022-10-04T21:40:07;102070.97;;;8.05;64.95
63819;BME280;49970;54.976;73.248;2022-10-04T21:42:33;102068.34;;;8.05;64.09
63819;BME280;49970;54.976;73.248;2022-10-04T21:44:59;102061.28;;;8.05;64.74
63819;BME280;49970;54.976;73.248;2022-10-04T21:47:26;102061.34;;;8.04;64.31
63819;BME280;49970;54.976;73.248;2022-10-04T21:49:52;102071.91;;;8.04;64.85
63819;BME280;49970;54.976;73.248;2022-10-04T21:52:20;102070.97;;;8.05;65.60
63819;BME280;49970;54.976;73.248;2022-10-04T21:54:46;102070.13;;;8.04;64.82
63819;BME280;49970;54.976;73.248;2022-10-04T21:57:22;102076.25;;;8.05;65.49
63819;BME280;49970;54.976;73.248;2022-10-04T21:59:48;102075.41;;;8.04;65.60
63819;BME280;49970;54.976;73.248;2022-10-04T22:02:15;102071.84;;;8.05;65.71
63819;BME280;49970;54.976;73.248;2022-10-04T22:04:41;102070.13;;;8.04;66.43
63819;BME280;49970;54.976;73.248;2022-10-04T22:07:07;102066.66;;;8.02;66.03
63819;BME280;49970;54.976;73.248;2022-10-04T22:09:35;102065.69;;;8.05;66.35
63819;BME280;49970;54.976;73.248;2022-10-04T22:12:01;102063.06;;;8.05;66.27
63819;BME280;49970;54.976;73.248;2022-10-04T22:14:28;102067.41;;;8.06;66.51
63819;BME280;49970;54.976;73.248;2022-10-04T22:16:54;102055.22;;;8.02;65.76
63819;BME280;49970;54.976;73.248;2022-10-04T22:19:20;102069.97;;;8.09;66.38
63819;BME280;49970;54.976;73.248;2022-10-04T22:21:46;102068.19;;;8.09;66.14
63819;BME280;49970;54.976;73.248;2022-10-04T22:24:19;102064.63;;;8.10;66.38
63819;BME280;49970;54.976;73.248;2022-10-04T22:26:46;102066.47;;;8.08;65.69
63819;BME280;49970;54.976;73.248;2022-10-04T22:29:13;102076.09;;;8.09;65.66
63819;BME280;49970;54.976;73.248;2022-10-04T22:31:43;102075.16;;;8.12;65.25
63819;BME280;49970;54.976;73.248;2022-10-04T22:34:15;102081.31;;;8.11;66.11
63819;BME280;49970;54.976;73.248;2022-10-04T22:36:42;102069.13;;;8.07;66.98
63819;BME280;49970;54.976;73.248;2022-10-04T22:41:38;102079.69;;;8.07;67.86
63819;BME280;49970;54.976;73.248;2022-10-04T22:44:24;102072.00;;;8.01;67.06
63819;BME280;49970;54.976;73.248;2022-10-04T22:46:52;102074.78;;;7.96;67.21
63819;BME280;49970;54.976;73.248;2022-10-04T22:49:21;102078.28;;;7.96;67.60
63819;BME280;49970;54.976;73.248;2022-10-04T22:51:50;102081.78;;;7.97;66.80
63819;BME280;49970;54.976;73.248;2022-10-04T22:54:31;102085.34;;;7.96;66.37
63819;BME280;49970;54.976;73.248;2022-10-04T22:56:59;102062.84;;;7.84;66.23
63819;BME280;49970;54.976;73.248;2022-10-04T22:59:38;102085.56;;;7.88;66.84